Terminal Aerodrome Forecast
Issued by NWS Sterling, VA

Home | Current Version | Previous Version | Text Only | Print | Product List | Glossary On
Versions: 1 2 3 4 5 6 7 8 9 10 11 12 13 14 15 16 17 18 19 20 21 22 23
000
FTUS41 KLWX 100500
TAFBWI
TAF
KBWI 100533Z 1006/1112 VRB04KT P6SM BKN130
     FM100900 VRB03KT 5SM BR SCT130
     FM101200 02004KT P6SM FEW050 SCT130
     FM101500 05004KT P6SM VCTS FEW050CB SCT130
     FM101800 07004KT P6SM FEW050 SCT130
     FM102000 VRB03KT P6SM BKN050 BKN130=

USA.gov is the U.S. government's official web portal to all federal, state and local government web resources and services.